createdAt,value
2023-05-25T00:02:56.715Z,51.73
2023-05-25T00:08:03.860Z,51.27
2023-05-25T00:13:11.002Z,50.93
2023-05-25T00:18:17.599Z,52.13
2023-05-25T00:23:24.312Z,52.23
2023-05-25T00:28:31.176Z,51.30
2023-05-25T00:33:38.503Z,51.23
2023-05-25T00:38:45.628Z,52.27
2023-05-25T00:43:52.698Z,51.53
2023-05-25T00:49:00.396Z,51.24
2023-05-25T00:54:07.688Z,50.43
2023-05-25T00:59:20.767Z,51.30
2023-05-25T01:04:30.480Z,51.77
2023-05-25T01:09:41.409Z,52.30
2023-05-25T01:14:49.918Z,51.07
2023-05-25T01:20:09.497Z,50.93
2023-05-25T01:25:14.829Z,50.87
2023-05-25T01:30:25.516Z,50.33
2023-05-25T01:35:34.500Z,51.00
2023-05-25T01:40:41.689Z,50.65
2023-05-25T01:45:49.878Z,50.97
2023-05-25T01:51:37.290Z,50.40
2023-05-25T01:56:48.433Z,49.76
2023-05-25T02:01:56.539Z,50.70
2023-05-25T02:07:05.896Z,50.17
2023-05-25T02:12:12.627Z,50.70
2023-05-25T02:17:21.869Z,50.45
2023-05-25T02:22:28.815Z,51.30
2023-05-25T02:27:37.591Z,50.93
2023-05-25T02:32:44.207Z,50.87
2023-05-25T02:37:51.416Z,50.85
2023-05-25T02:42:58.796Z,50.12
2023-05-25T02:48:05.783Z,50.17
2023-05-25T02:53:15.794Z,50.65
2023-05-25T02:58:22.687Z,50.60
2023-05-25T03:03:30.425Z,49.67
2023-05-25T03:08:54.116Z,51.03
2023-05-25T03:14:02.229Z,50.53
2023-05-25T03:19:10.821Z,51.60
2023-05-25T03:24:17.703Z,50.50
2023-05-25T03:29:25.522Z,51.07
2023-05-25T03:34:34.950Z,50.55
2023-05-25T03:39:42.494Z,50.67
2023-05-25T03:44:49.744Z,51.20
2023-05-25T03:49:56.956Z,51.23
2023-05-25T03:55:05.497Z,51.87
2023-05-25T04:00:14.620Z,51.37
2023-05-25T04:05:21.916Z,50.57
2023-05-25T04:10:29.501Z,51.08
2023-05-25T04:15:37.018Z,50.75
2023-05-25T04:20:45.435Z,50.87
2023-05-25T04:25:52.628Z,51.80
2023-05-25T04:31:00.398Z,53.50
2023-05-25T04:36:08.345Z,52.47
2023-05-25T04:41:18.246Z,52.53
2023-05-25T04:46:25.929Z,51.87
2023-05-25T04:51:33.227Z,52.63
2023-05-25T04:56:40.516Z,54.70
2023-05-25T05:01:48.107Z,57.27
2023-05-25T05:06:57.393Z,53.33
2023-05-25T05:12:05.046Z,53.13
2023-05-25T05:17:12.985Z,53.03
2023-05-25T05:22:21.802Z,53.80
2023-05-25T05:27:29.420Z,53.98
2023-05-25T05:32:36.570Z,53.33
2023-05-25T05:37:44.650Z,53.10
2023-05-25T05:42:53.420Z,52.43
2023-05-25T05:48:01.568Z,53.10
2023-05-25T05:53:10.217Z,52.97
2023-05-25T05:58:18.087Z,53.43
2023-05-25T06:03:27.425Z,52.15
2023-05-25T06:08:35.838Z,50.83
2023-05-25T06:13:44.241Z,52.00
2023-05-25T06:18:52.319Z,52.80
2023-05-25T06:23:59.460Z,52.77
2023-05-25T06:29:06.090Z,52.90
2023-05-25T06:34:12.932Z,52.80
2023-05-25T06:39:20.450Z,52.46
2023-05-25T06:44:27.794Z,52.93
2023-05-25T06:49:35.440Z,52.77
2023-05-25T06:54:42.531Z,53.10
2023-05-25T06:59:49.209Z,52.30
2023-05-25T07:04:56.238Z,53.40
2023-05-25T07:10:05.335Z,52.97
2023-05-25T07:15:14.057Z,53.00
2023-05-25T07:20:22.331Z,52.62
2023-05-25T07:25:29.540Z,53.75
2023-05-25T07:35:43.535Z,53.10
2023-05-25T07:40:50.919Z,53.63
2023-05-25T07:45:58.425Z,53.20
2023-05-25T07:51:06.376Z,53.58
2023-05-25T07:56:12.989Z,54.03
2023-05-25T08:01:20.070Z,53.50
2023-05-25T08:06:27.480Z,54.20
2023-05-25T08:11:34.269Z,53.55
2023-05-25T08:16:41.226Z,53.93
2023-05-25T08:21:48.404Z,54.18
2023-05-25T08:26:55.363Z,54.37
2023-05-25T08:32:03.295Z,54.30
2023-05-25T08:37:11.740Z,55.03
2023-05-25T08:42:19.105Z,55.40
2023-05-25T08:47:26.576Z,55.57
2023-05-25T08:52:35.729Z,55.47
2023-05-25T08:58:16.499Z,55.50
2023-05-25T09:03:25.578Z,55.67
2023-05-25T09:08:33.109Z,55.92
2023-05-25T09:13:40.594Z,55.60
2023-05-25T09:18:48.235Z,55.53
2023-05-25T09:23:55.874Z,55.75
2023-05-25T09:29:04.724Z,56.87
2023-05-25T09:34:17.994Z,55.50
2023-05-25T09:39:25.437Z,56.02
2023-05-25T09:44:32.698Z,55.83
2023-05-25T09:49:39.532Z,55.80
2023-05-25T09:54:52.174Z,56.00
2023-05-25T09:59:59.263Z,55.37
2023-05-25T10:05:07.569Z,55.52
2023-05-25T10:10:17.851Z,55.67
2023-05-25T10:15:25.125Z,55.87
2023-05-25T10:20:35.029Z,55.73
2023-05-25T10:25:51.767Z,55.57
2023-05-25T10:31:00.019Z,56.60
2023-05-25T10:36:11.300Z,55.77
2023-05-25T10:41:17.724Z,55.93
2023-05-25T10:46:24.450Z,56.50
2023-05-25T10:51:41.506Z,56.20
2023-05-25T10:57:23.242Z,56.50
2023-05-25T11:02:32.626Z,55.88
2023-05-25T11:07:56.632Z,55.80
2023-05-25T11:13:24.371Z,56.30
2023-05-25T11:18:40.028Z,56.77
2023-05-25T11:29:16.880Z,55.67
2023-05-25T11:34:26.632Z,56.08
2023-05-25T11:39:34.049Z,56.08
2023-05-25T11:44:42.070Z,57.10
2023-05-25T11:49:50.223Z,56.58
2023-05-25T11:54:56.959Z,56.63
2023-05-25T12:00:05.503Z,56.60
2023-05-25T12:05:12.145Z,55.93
2023-05-25T12:10:20.166Z,56.27
2023-05-25T12:15:29.341Z,56.10
2023-05-25T12:20:37.680Z,55.97
2023-05-25T12:25:50.836Z,56.55
2023-05-25T12:30:53.004Z,56.77
2023-05-25T12:35:59.506Z,55.55
2023-05-25T12:41:10.650Z,56.17
2023-05-25T12:46:28.075Z,56.30
2023-05-25T12:51:41.762Z,56.70
2023-05-25T12:56:58.230Z,56.67
2023-05-25T13:02:08.733Z,56.80
2023-05-25T13:07:16.302Z,56.90
2023-05-25T13:12:22.831Z,56.98
2023-05-25T13:17:29.969Z,56.53
2023-05-25T13:22:36.873Z,57.13
2023-05-25T13:27:49.316Z,57.50
2023-05-25T13:32:56.364Z,56.67
2023-05-25T13:38:03.230Z,57.27
2023-05-25T13:43:09.680Z,56.85
2023-05-25T13:48:16.709Z,57.08
2023-05-25T13:53:23.559Z,57.17
2023-05-25T13:58:31.171Z,56.70
2023-05-25T14:03:40.721Z,57.55
2023-05-25T14:08:47.377Z,57.37
2023-05-25T14:13:54.157Z,57.53
2023-05-25T14:19:01.030Z,57.53
2023-05-25T14:24:08.487Z,57.40
2023-05-25T14:29:16.477Z,57.55
2023-05-25T14:34:23.338Z,57.00
2023-05-25T14:39:30.684Z,57.50
2023-05-25T14:44:37.718Z,58.20
2023-05-25T14:49:44.450Z,57.80
2023-05-25T14:54:50.992Z,57.37
2023-05-25T14:59:57.666Z,57.43
2023-05-25T15:05:04.504Z,57.57
2023-05-25T15:10:11.848Z,57.60
2023-05-25T15:15:20.678Z,57.34
2023-05-25T15:20:27.278Z,57.33
2023-05-25T15:25:35.809Z,57.17
2023-05-25T15:30:43.740Z,57.62
2023-05-25T15:35:50.600Z,56.70
2023-05-25T15:40:57.348Z,56.93
2023-05-25T15:46:04.115Z,56.47
2023-05-25T15:51:11.163Z,56.50
2023-05-25T15:56:17.602Z,57.03
2023-05-25T16:01:24.252Z,56.83
2023-05-25T16:06:31.428Z,56.70
2023-05-25T16:11:38.248Z,56.83
2023-05-25T16:16:45.182Z,56.60
2023-05-25T16:21:52.136Z,56.47
2023-05-25T16:27:00.404Z,56.08
2023-05-25T16:32:07.675Z,56.23
2023-05-25T16:37:15.967Z,56.00
2023-05-25T16:42:24.418Z,56.77
2023-05-25T16:47:30.990Z,56.50
2023-05-25T16:52:37.702Z,55.63
2023-05-25T16:57:45.860Z,55.37
2023-05-25T17:02:53.096Z,56.17
2023-05-25T17:08:00.542Z,55.52
2023-05-25T17:13:07.536Z,55.50
2023-05-25T17:18:16.969Z,56.83
2023-05-25T17:23:23.818Z,56.05
2023-05-25T17:28:32.262Z,55.78
2023-05-25T17:33:40.204Z,55.47
2023-05-25T17:38:47.414Z,55.77
2023-05-25T17:43:54.936Z,55.43
2023-05-25T17:49:04.861Z,56.45
2023-05-25T17:54:14.658Z,55.25
2023-05-25T17:59:22.193Z,55.63
2023-05-25T18:04:29.418Z,55.25
2023-05-25T18:09:37.994Z,55.85
2023-05-25T18:14:45.624Z,55.33
2023-05-25T18:19:52.746Z,54.77
2023-05-25T18:25:00.792Z,55.63
2023-05-25T18:30:09.370Z,55.90
2023-05-25T18:35:21.156Z,55.60
2023-05-25T18:40:28.728Z,55.50
2023-05-25T18:45:36.053Z,56.03
2023-05-25T18:50:43.706Z,56.10
2023-05-25T18:55:51.326Z,55.47
2023-05-25T19:00:58.963Z,55.90
2023-05-25T19:06:07.562Z,55.87
2023-05-25T19:11:16.097Z,55.53
2023-05-25T19:16:24.228Z,55.47
2023-05-25T19:21:34.121Z,55.60
2023-05-25T19:26:43.466Z,55.73
2023-05-25T19:31:52.834Z,60.07
2023-05-25T19:37:10.950Z,56.63
2023-05-25T19:42:09.452Z,56.53
2023-05-25T19:47:17.784Z,55.30
2023-05-25T19:52:24.809Z,54.93
2023-05-25T19:57:33.081Z,54.63
2023-05-25T20:02:41.773Z,55.20
2023-05-25T20:07:51.073Z,54.77
2023-05-25T20:12:59.501Z,54.97
2023-05-25T20:18:07.300Z,55.60
2023-05-25T20:23:20.723Z,55.63
2023-05-25T20:28:28.519Z,55.70
2023-05-25T20:33:36.121Z,55.43
2023-05-25T20:38:47.210Z,55.27
2023-05-25T20:43:55.113Z,55.93
2023-05-25T20:49:03.579Z,55.67
2023-05-25T20:54:10.865Z,55.97
2023-05-25T20:59:17.591Z,55.43
2023-05-25T21:04:24.557Z,55.38
2023-05-25T21:09:31.877Z,56.10
2023-05-25T21:14:39.347Z,55.53
2023-05-25T21:19:46.322Z,55.57
2023-05-25T21:24:53.803Z,55.25
2023-05-25T21:30:01.114Z,54.63
2023-05-25T21:35:08.308Z,55.07
2023-05-25T21:40:15.957Z,55.77
2023-05-25T21:45:23.242Z,55.00
2023-05-25T21:50:31.508Z,55.20
2023-05-25T21:55:38.477Z,55.40
2023-05-25T22:00:47.948Z,55.20
2023-05-25T22:05:55.518Z,54.87
2023-05-25T22:11:02.904Z,55.00
2023-05-25T22:16:09.918Z,55.57
2023-05-25T22:21:17.798Z,55.50
2023-05-25T22:26:24.587Z,55.13
2023-05-25T22:31:31.915Z,55.23
2023-05-25T22:36:40.844Z,55.30
2023-05-25T22:41:48.570Z,55.77
2023-05-25T22:46:56.118Z,55.33
2023-05-25T22:52:03.229Z,55.20
2023-05-25T22:57:11.917Z,54.65
2023-05-25T23:02:22.219Z,54.93
2023-05-25T23:07:30.342Z,54.98
2023-05-25T23:12:38.804Z,55.00
2023-05-25T23:17:46.109Z,55.07
2023-05-25T23:22:53.456Z,55.57
2023-05-25T23:28:00.751Z,55.37
2023-05-25T23:33:08.624Z,55.57
2023-05-25T23:38:18.648Z,54.77
2023-05-25T23:43:25.587Z,55.60
2023-05-25T23:48:33.499Z,54.50
2023-05-25T23:53:41.464Z,54.97
2023-05-25T23:58:51.855Z,54.53
